Time;durP1;ratioP1;P1;durP2;ratioP2;P2;SDS_P1;SDS_P2;PMS_P1;PMS_P2;Temp;Humidity;BMP_temperature;BMP_pressure;BME280_temperature;BME280_humidity;BME280_pressure;Samples;Min_cycle;Max_cycle;Signal;HPM_P1;HPM_P2
2024/01/05 00:01:33;;;;;;;7.97;2.40;;;;;;;;;;4987190;28;87984;-82
2024/01/05 00:04:00;;;;;;;8.25;2.20;;;;;;;;;;4987339;28;87946;-81
2024/01/05 00:06:28;;;;;;;8.43;2.17;;;;;;;;;;4982958;28;88720;-81
2024/01/05 00:08:55;;;;;;;;;;;;;;;;;;4991157;28;87656;-81
2024/01/05 00:11:21;;;;;;;7.20;2.50;;;;;;;;;;4982399;28;88732;-81
2024/01/05 00:13:48;;;;;;;5.82;2.03;;;;;;;;;;4970758;28;86905;-80
2024/01/05 00:16:17;;;;;;;7.20;2.10;;;;;;;;;;4985802;28;87867;-81
2024/01/05 00:18:45;;;;;;;7.10;2.22;;;;;;;;;;4987312;28;88233;-80
2024/01/05 00:21:25;;;;;;;8.15;2.40;;;;;;;;;;4986174;28;88394;-81
2024/01/05 00:23:52;;;;;;;6.43;2.00;;;;;;;;;;4987189;28;88253;-82
2024/01/05 00:26:19;;;;;;;;;;;;;;;;;;4983744;28;88345;-80
2024/01/05 00:28:46;;;;;;;9.30;2.20;;;;;;;;;;4986660;28;104175;-80
2024/01/05 00:31:13;;;;;;;6.70;1.90;;;;;;;;;;4986334;28;90334;-81
2024/01/05 00:33:40;;;;;;;5.47;1.92;;;;;;;;;;4985769;28;87746;-81
2024/01/05 00:36:08;;;;;;;7.72;2.30;;;;;;;;;;4981516;28;88153;-80
2024/01/05 00:38:35;;;;;;;6.10;2.00;;;;;;;;;;4985768;28;87679;-80
2024/01/05 00:41:02;;;;;;;5.43;2.00;;;;;;;;;;4968669;28;90160;-80
2024/01/05 00:43:29;;;;;;;5.18;1.75;;;;;;;;;;4986369;28;88091;-80
2024/01/05 00:45:56;;;;;;;6.28;2.28;;;;;;;;;;4984072;28;91892;-81
2024/01/05 00:48:22;;;;;;;6.25;2.08;;;;;;;;;;4984558;28;89000;-81
2024/01/05 00:50:49;;;;;;;7.13;2.03;;;;;;;;;;4987145;28;88730;-80
2024/01/05 00:53:16;;;;;;;7.38;1.80;;;;;;;;;;4988895;28;89058;-82
2024/01/05 00:55:42;;;;;;;10.45;2.25;;;;;;;;;;4969695;28;90297;-83
2024/01/05 00:58:09;;;;;;;10.48;2.15;;;;;;;;;;4986597;28;89176;-82
2024/01/05 01:00:36;;;;;;;9.35;1.90;;;;;;;;;;4986564;28;87721;-82
2024/01/05 01:03:03;;;;;;;7.68;2.00;;;;;;;;;;4987946;28;88081;-82
2024/01/05 01:05:29;;;;;;;8.18;1.95;;;;;;;;;;4986506;28;88539;-83
2024/01/05 01:07:56;;;;;;;8.15;2.00;;;;;;;;;;4969827;28;89044;-83
2024/01/05 01:10:23;;;;;;;6.32;1.80;;;;;;;;;;4968177;28;89839;-82
2024/01/05 01:12:49;;;;;;;7.15;2.05;;;;;;;;;;4985767;28;88864;-83
2024/01/05 01:15:16;;;;;;;7.88;1.90;;;;;;;;;;4990031;28;87722;-82
2024/01/05 01:17:42;;;;;;;7.70;1.83;;;;;;;;;;4987103;28;90911;-82
2024/01/05 01:20:09;;;;;;;8.32;1.90;;;;;;;;;;4989319;28;88725;-82
2024/01/05 01:22:36;;;;;;;6.38;1.70;;;;;;;;;;4972336;28;89931;-82
2024/01/05 01:25:03;;;;;;;6.03;1.95;;;;;;;;;;4990718;28;88664;-83
2024/01/05 01:27:29;;;;;;;5.43;1.80;;;;;;;;;;4991105;28;87142;-84
2024/01/05 01:29:56;;;;;;;5.70;1.70;;;;;;;;;;4989124;28;87539;-84
2024/01/05 01:32:23;;;;;;;6.38;1.80;;;;;;;;;;4990576;28;88416;-83
2024/01/05 01:34:50;;;;;;;4.47;1.77;;;;;;;;;;4991414;28;89205;-83
2024/01/05 01:37:16;;;;;;;6.88;2.08;;;;;;;;;;4989338;28;87950;-82
2024/01/05 01:39:44;;;;;;;6.15;1.80;;;;;;;;;;4990770;28;88304;-82
2024/01/05 01:42:10;;;;;;;6.60;2.25;;;;;;;;;;4972957;28;90793;-83
2024/01/05 01:44:37;;;;;;;7.03;1.90;;;;;;;;;;4988144;28;94866;-83
2024/01/05 01:47:04;;;;;;;6.28;2.00;;;;;;;;;;5009189;28;88037;-83
2024/01/05 01:49:31;;;;;;;8.32;2.13;;;;;;;;;;5010101;27;88452;-83
2024/01/05 01:51:57;;;;;;;5.78;1.83;;;;;;;;;;4989777;28;88160;-83
2024/01/05 01:54:24;;;;;;;5.35;1.80;;;;;;;;;;4989457;28;88018;-83
2024/01/05 01:56:51;;;;;;;5.97;1.77;;;;;;;;;;4991555;28;90692;-83
2024/01/05 01:59:18;;;;;;;5.80;1.80;;;;;;;;;;4989697;28;88451;-83
2024/01/05 02:01:46;;;;;;;6.82;1.92;;;;;;;;;;4989404;28;88843;-83
2024/01/05 02:04:17;;;;;;;5.72;1.63;;;;;;;;;;4989746;28;88397;-83
2024/01/05 02:06:45;;;;;;;6.75;1.73;;;;;;;;;;4972945;28;90105;-83
2024/01/05 02:09:12;;;;;;;6.88;2.10;;;;;;;;;;4972843;28;90921;-83
2024/01/05 02:11:41;;;;;;;6.32;1.52;;;;;;;;;;4989161;28;88303;-83
2024/01/05 02:14:08;;;;;;;4.30;1.58;;;;;;;;;;4989207;28;89362;-83
2024/01/05 02:16:35;;;;;;;7.07;1.80;;;;;;;;;;4989624;28;87340;-83
2024/01/05 02:19:02;;;;;;;5.85;1.92;;;;;;;;;;4991398;28;91075;-84
2024/01/05 02:21:30;;;;;;;5.28;1.58;;;;;;;;;;5005187;28;90274;-83
2024/01/05 02:23:56;;;;;;;;;;;;;;;;;;4987925;28;91586;-84
2024/01/05 02:26:23;;;;;;;5.80;1.55;;;;;;;;;;4989096;28;88650;-83
2024/01/05 02:28:49;;;;;;;7.88;1.80;;;;;;;;;;4972185;28;90168;-83
2024/01/05 02:31:16;;;;;;;8.27;1.83;;;;;;;;;;4988642;28;88537;-83
2024/01/05 02:33:43;;;;;;;6.82;1.73;;;;;;;;;;4989061;28;88805;-83
2024/01/05 02:36:10;;;;;;;;;;;;;;;;;;4974679;28;88128;-84
2024/01/05 02:38:37;;;;;;;6.45;1.80;;;;;;;;;;4977624;28;90539;-84
2024/01/05 02:41:03;;;;;;;5.22;1.73;;;;;;;;;;4993530;28;86893;-85
2024/01/05 02:43:30;;;;;;;6.38;1.75;;;;;;;;;;4989252;28;88928;-84
2024/01/05 02:45:57;;;;;;;9.25;1.80;;;;;;;;;;4971466;28;88971;-83
2024/01/05 02:48:23;;;;;;;5.38;1.63;;;;;;;;;;4987269;28;90920;-83
2024/01/05 02:50:50;;;;;;;5.55;1.60;;;;;;;;;;4971943;28;91121;-83
2024/01/05 02:53:17;;;;;;;7.75;1.85;;;;;;;;;;4987895;28;87527;-83
2024/01/05 02:55:43;;;;;;;6.20;1.70;;;;;;;;;;4988082;28;87978;-82
2024/01/05 02:58:10;;;;;;;4.13;1.30;;;;;;;;;;4987499;28;90440;-83
2024/01/05 03:00:36;;;;;;;6.25;1.50;;;;;;;;;;4987937;28;87793;-84
2024/01/05 03:03:04;;;;;;;6.93;1.63;;;;;;;;;;4991188;28;90748;-85
2024/01/05 03:05:31;;;;;;;4.70;1.60;;;;;;;;;;4988409;28;86962;-84
2024/01/05 03:07:58;;;;;;;4.57;1.40;;;;;;;;;;4988447;28;88521;-83
2024/01/05 03:10:25;;;;;;;5.57;1.63;;;;;;;;;;4988051;28;88297;-83
2024/01/05 03:12:51;;;;;;;6.57;1.40;;;;;;;;;;4987460;28;89698;-83
2024/01/05 03:15:18;;;;;;;5.40;1.40;;;;;;;;;;4989052;28;88117;-84
2024/01/05 03:17:46;;;;;;;5.50;1.60;;;;;;;;;;4989466;28;88314;-84
2024/01/05 03:20:14;;;;;;;6.43;1.42;;;;;;;;;;4986981;28;89780;-84
2024/01/05 03:22:41;;;;;;;4.25;1.40;;;;;;;;;;4988703;28;87952;-83
2024/01/05 03:25:08;;;;;;;5.40;1.42;;;;;;;;;;4990209;28;88296;-83
2024/01/05 03:27:34;;;;;;;6.75;1.70;;;;;;;;;;4987361;28;90342;-82
2024/01/05 03:30:01;;;;;;;6.10;1.30;;;;;;;;;;4986759;28;89455;-83
2024/01/05 03:32:28;;;;;;;6.47;1.40;;;;;;;;;;4987208;28;89574;-84
2024/01/05 03:34:54;;;;;;;4.53;1.40;;;;;;;;;;4969779;28;90845;-83
2024/01/05 03:37:21;;;;;;;6.20;1.40;;;;;;;;;;4986998;28;89087;-83
2024/01/05 03:39:48;;;;;;;5.55;1.50;;;;;;;;;;4986697;28;89403;-84
2024/01/05 03:42:15;;;;;;;5.57;1.40;;;;;;;;;;4969105;28;90628;-82
2024/01/05 03:44:41;;;;;;;4.25;1.23;;;;;;;;;;5005915;28;89862;-81
2024/01/05 03:47:08;;;;;;;3.53;1.30;;;;;;;;;;5006885;28;90203;-81
2024/01/05 03:49:36;;;;;;;5.43;1.50;;;;;;;;;;5007893;27;87653;-81
2024/01/05 03:52:03;;;;;;;6.78;1.70;;;;;;;;;;4991018;28;89760;-82
2024/01/05 03:54:30;;;;;;;5.43;1.40;;;;;;;;;;5006190;27;90624;-82
2024/01/05 03:56:56;;;;;;;5.78;1.33;;;;;;;;;;5000605;28;87937;-81
2024/01/05 03:59:23;;;;;;;4.80;1.40;;;;;;;;;;4986523;28;89600;-81
2024/01/05 04:01:49;;;;;;;5.80;1.45;;;;;;;;;;4986386;28;88376;-81
2024/01/05 04:04:16;;;;;;;5.85;1.33;;;;;;;;;;4985856;28;88775;-80
2024/01/05 04:06:44;;;;;;;4.07;1.23;;;;;;;;;;4991279;28;87596;-81
2024/01/05 04:09:11;;;;;;;5.65;1.40;;;;;;;;;;4986486;28;90918;-83
2024/01/05 04:11:38;;;;;;;4.00;1.20;;;;;;;;;;4986783;28;89734;-82
2024/01/05 04:14:05;;;;;;;5.82;1.20;;;;;;;;;;4971070;28;90818;-83
2024/01/05 04:16:32;;;;;;;11.13;1.58;;;;;;;;;;4985791;28;90887;-83
2024/01/05 04:18:58;;;;;;;5.80;1.40;;;;;;;;;;4987730;28;89775;-82
2024/01/05 04:21:25;;;;;;;5.25;1.30;;;;;;;;;;4987364;28;87567;-82
2024/01/05 04:23:54;;;;;;;3.17;1.20;;;;;;;;;;4970838;28;90263;-82
2024/01/05 04:26:20;;;;;;;3.58;1.20;;;;;;;;;;4985781;28;88448;-82
2024/01/05 04:28:47;;;;;;;5.78;1.30;;;;;;;;;;4989803;28;94837;-82
2024/01/05 04:31:14;;;;;;;5.00;1.33;;;;;;;;;;4986361;28;89011;-83
2024/01/05 04:33:40;;;;;;;6.80;1.30;;;;;;;;;;4986448;28;91272;-81
2024/01/05 04:36:07;;;;;;;5.10;1.40;;;;;;;;;;4971735;28;88641;-81
2024/01/05 04:38:34;;;;;;;5.00;1.52;;;;;;;;;;4975311;28;87641;-81
2024/01/05 04:41:01;;;;;;;4.47;1.50;;;;;;;;;;4985477;28;90776;-81
2024/01/05 04:43:28;;;;;;;4.07;1.30;;;;;;;;;;4993249;28;89455;-80
2024/01/05 04:45:54;;;;;;;5.30;1.30;;;;;;;;;;5005915;28;89288;-81
2024/01/05 04:48:21;;;;;;;5.30;1.52;;;;;;;;;;4988690;27;90651;-82
2024/01/05 04:50:48;;;;;;;4.75;1.30;;;;;;;;;;5007950;28;88704;-82
2024/01/05 04:53:14;;;;;;;5.00;1.23;;;;;;;;;;5003960;28;88050;-82
2024/01/05 04:55:41;;;;;;;3.90;1.02;;;;;;;;;;4989491;28;90553;-81
2024/01/05 04:58:08;;;;;;;5.18;1.00;;;;;;;;;;4973983;28;87694;-81
2024/01/05 05:00:34;;;;;;;3.40;1.13;;;;;;;;;;4989485;28;89634;-82
2024/01/05 05:03:01;;;;;;;6.20;1.23;;;;;;;;;;4991372;28;88350;-81
2024/01/05 05:05:28;;;;;;;4.28;1.10;;;;;;;;;;4990752;28;87855;-81
2024/01/05 05:07:55;;;;;;;5.00;1.38;;;;;;;;;;4990087;28;87722;-82
2024/01/05 05:10:24;;;;;;;5.55;1.40;;;;;;;;;;4988314;28;88406;-81
2024/01/05 05:12:50;;;;;;;5.68;1.40;;;;;;;;;;4992580;28;87520;-82
2024/01/05 05:15:17;;;;;;;4.30;1.20;;;;;;;;;;4989308;28;91179;-82
2024/01/05 05:17:44;;;;;;;4.78;1.30;;;;;;;;;;4989281;28;87656;-82
2024/01/05 05:20:11;;;;;;;3.33;0.90;;;;;;;;;;4989210;28;87963;-82
2024/01/05 05:22:38;;;;;;;4.32;1.30;;;;;;;;;;4990339;28;92716;-84
2024/01/05 05:25:05;;;;;;;3.80;1.23;;;;;;;;;;4989250;28;88536;-83
2024/01/05 05:27:33;;;;;;;5.55;1.20;;;;;;;;;;4989123;28;88312;-83
2024/01/05 05:30:04;;;;;;;5.15;1.08;;;;;;;;;;4972537;28;90221;-83
2024/01/05 05:32:30;;;;;;;4.50;1.20;;;;;;;;;;4988921;28;86957;-82
2024/01/05 05:34:57;;;;;;;5.13;1.40;;;;;;;;;;4986640;28;89673;-82
2024/01/05 05:37:24;;;;;;;3.67;1.20;;;;;;;;;;4988745;28;89507;-81
2024/01/05 05:39:50;;;;;;;4.18;1.10;;;;;;;;;;4978098;28;90714;-82
2024/01/05 05:42:17;;;;;;;6.45;1.10;;;;;;;;;;4951637;28;90847;-81
2024/01/05 05:44:43;;;;;;;5.78;1.30;;;;;;;;;;5004317;27;87653;-81
2024/01/05 05:47:10;;;;;;;3.45;0.90;;;;;;;;;;5008309;28;89536;-81
2024/01/05 05:49:37;;;;;;;3.55;1.08;;;;;;;;;;5000914;28;88708;-81
2024/01/05 05:52:05;;;;;;;4.30;1.02;;;;;;;;;;4988192;28;90167;-82
2024/01/05 05:54:32;;;;;;;;;;;;;;;;;;4990729;28;88347;-82
2024/01/05 05:56:58;;;;;;;6.03;1.13;;;;;;;;;;4991786;28;96127;-82
2024/01/05 05:59:25;;;;;;;5.40;1.30;;;;;;;;;;4971802;28;89930;-82
2024/01/05 06:01:51;;;;;;;3.92;1.10;;;;;;;;;;4989674;28;88360;-81
2024/01/05 06:04:18;;;;;;;5.82;1.45;;;;;;;;;;4970313;28;89407;-82
2024/01/05 06:06:46;;;;;;;4.65;1.20;;;;;;;;;;4972189;28;91577;-82
2024/01/05 06:09:14;;;;;;;;;;;;;;;;;;4972406;28;90522;-82
2024/01/05 06:11:41;;;;;;;5.80;1.02;;;;;;;;;;4988954;28;101983;-83
2024/01/05 06:14:08;;;;;;;3.30;1.20;;;;;;;;;;4990041;28;88004;-83
2024/01/05 06:16:35;;;;;;;4.85;1.10;;;;;;;;;;4973701;28;90539;-83
2024/01/05 06:19:01;;;;;;;4.97;1.30;;;;;;;;;;4987526;28;89793;-82
2024/01/05 06:21:28;;;;;;;3.45;0.98;;;;;;;;;;4989644;28;88144;-83
2024/01/05 06:23:55;;;;;;;4.30;1.10;;;;;;;;;;4989370;28;87691;-83
2024/01/05 06:26:21;;;;;;;5.38;1.48;;;;;;;;;;4970311;28;89713;-83
2024/01/05 06:28:48;;;;;;;3.95;1.10;;;;;;;;;;4987521;28;89367;-82
2024/01/05 06:31:14;;;;;;;4.32;1.20;;;;;;;;;;4986950;28;87750;-83
2024/01/05 06:33:42;;;;;;;4.97;1.20;;;;;;;;;;4988286;28;88931;-82
2024/01/05 06:36:09;;;;;;;4.50;1.20;;;;;;;;;;4971287;28;90539;-83
2024/01/05 06:38:35;;;;;;;2.35;1.10;;;;;;;;;;4979655;28;87527;-82
2024/01/05 06:41:02;;;;;;;3.13;0.90;;;;;;;;;;4984100;28;90086;-82
2024/01/05 06:43:29;;;;;;;4.80;1.08;;;;;;;;;;4968382;28;87726;-81
2024/01/05 06:45:56;;;;;;;2.25;0.90;;;;;;;;;;4987643;28;89325;-82
2024/01/05 06:48:22;;;;;;;3.50;1.20;;;;;;;;;;4987632;28;90664;-82
2024/01/05 06:50:49;;;;;;;4.85;1.20;;;;;;;;;;4971017;28;90091;-82
2024/01/05 06:53:16;;;;;;;3.80;1.00;;;;;;;;;;4970322;28;90365;-83
2024/01/05 06:55:42;;;;;;;11.07;1.20;;;;;;;;;;4987464;28;90536;-83
2024/01/05 06:58:09;;;;;;;4.40;1.30;;;;;;;;;;4970663;28;89670;-83
2024/01/05 07:00:37;;;;;;;5.32;1.10;;;;;;;;;;4990054;28;88364;-85
2024/01/05 07:03:04;;;;;;;4.72;1.02;;;;;;;;;;4987096;28;88845;-80
2024/01/05 07:05:31;;;;;;;4.38;1.10;;;;;;;;;;4987453;28;87977;-82
2024/01/05 07:07:58;;;;;;;3.75;1.02;;;;;;;;;;4970361;28;90232;-83
2024/01/05 07:10:25;;;;;;;2.63;0.93;;;;;;;;;;4988273;28;86914;-84
2024/01/05 07:12:52;;;;;;;4.72;1.10;;;;;;;;;;4988506;28;88212;-83
2024/01/05 07:15:18;;;;;;;3.65;1.05;;;;;;;;;;4968109;28;90343;-83
2024/01/05 07:17:45;;;;;;;4.05;0.90;;;;;;;;;;4984272;28;88817;-83
2024/01/05 07:20:12;;;;;;;7.13;1.33;;;;;;;;;;4968838;28;88775;-82
2024/01/05 07:22:39;;;;;;;5.40;1.10;;;;;;;;;;4987305;28;93003;-83
2024/01/05 07:25:09;;;;;;;7.72;1.38;;;;;;;;;;4985862;28;88149;-82
2024/01/05 07:27:36;;;;;;;5.88;1.58;;;;;;;;;;4986231;28;89218;-83
2024/01/05 07:30:06;;;;;;;6.40;1.30;;;;;;;;;;4986275;28;87511;-82
2024/01/05 07:32:33;;;;;;;4.50;1.25;;;;;;;;;;4984702;28;90221;-83
2024/01/05 07:35:00;;;;;;;7.72;1.30;;;;;;;;;;4984836;28;87828;-82
2024/01/05 07:37:27;;;;;;;7.65;1.15;;;;;;;;;;4984261;28;87885;-81
2024/01/05 07:39:54;;;;;;;3.78;1.10;;;;;;;;;;4982511;28;87823;-83
2024/01/05 07:42:20;;;;;;;8.25;1.25;;;;;;;;;;4983551;28;89451;-83
2024/01/05 07:44:47;;;;;;;5.40;1.02;;;;;;;;;;5003946;28;87754;-82
2024/01/05 07:47:13;;;;;;;3.42;1.10;;;;;;;;;;4987636;28;91002;-83
2024/01/05 07:49:40;;;;;;;3.53;0.98;;;;;;;;;;4986056;28;89199;-82
2024/01/05 07:52:07;;;;;;;2.38;0.90;;;;;;;;;;5003838;28;88070;-83
2024/01/05 07:54:34;;;;;;;1.95;0.88;;;;;;;;;;5002587;27;90437;-82
2024/01/05 07:57:00;;;;;;;3.83;0.82;;;;;;;;;;4990800;28;87807;-83
2024/01/05 07:59:27;;;;;;;2.17;0.80;;;;;;;;;;4983800;28;90834;-83
2024/01/05 08:01:53;;;;;;;2.33;0.85;;;;;;;;;;4964904;28;90820;-83
2024/01/05 08:04:20;;;;;;;2.60;0.85;;;;;;;;;;4965564;28;89979;-84
2024/01/05 08:06:47;;;;;;;3.08;0.90;;;;;;;;;;4964588;28;88396;-83
2024/01/05 08:09:13;;;;;;;2.03;0.70;;;;;;;;;;4964519;28;89432;-83
2024/01/05 08:11:40;;;;;;;1.77;0.77;;;;;;;;;;4984047;28;88293;-81
2024/01/05 08:14:07;;;;;;;2.22;0.80;;;;;;;;;;4984570;28;94844;-80
2024/01/05 08:16:34;;;;;;;7.03;0.95;;;;;;;;;;4984192;28;87751;-82
2024/01/05 08:19:00;;;;;;;2.53;0.80;;;;;;;;;;4983736;28;90418;-83
2024/01/05 08:21:28;;;;;;;3.33;0.85;;;;;;;;;;4967577;28;91448;-83
2024/01/05 08:23:55;;;;;;;2.05;0.82;;;;;;;;;;4985461;28;87315;-83
2024/01/05 08:26:22;;;;;;;2.58;0.68;;;;;;;;;;4984436;28;90096;-83
2024/01/05 08:28:48;;;;;;;1.88;0.68;;;;;;;;;;4984808;28;87581;-83
2024/01/05 08:31:15;;;;;;;1.90;0.70;;;;;;;;;;4983032;28;91740;-83
2024/01/05 08:33:42;;;;;;;1.80;0.70;;;;;;;;;;4983308;28;88712;-84
2024/01/05 08:36:09;;;;;;;2.38;0.68;;;;;;;;;;4974309;28;89555;-84
2024/01/05 08:38:37;;;;;;;5.22;0.90;;;;;;;;;;4971552;28;87664;-83
2024/01/05 08:41:03;;;;;;;1.25;0.63;;;;;;;;;;4983147;28;88322;-84
2024/01/05 08:43:30;;;;;;;3.38;0.90;;;;;;;;;;4967196;28;90080;-82
2024/01/05 08:45:57;;;;;;;4.30;0.85;;;;;;;;;;4982514;28;90583;-82
2024/01/05 08:48:23;;;;;;;3.72;0.75;;;;;;;;;;4985677;28;90745;-82
2024/01/05 08:50:51;;;;;;;2.10;0.70;;;;;;;;;;4982898;28;89473;-81
2024/01/05 08:53:19;;;;;;;1.02;0.70;;;;;;;;;;4966281;28;90711;-81
2024/01/05 08:55:46;;;;;;;1.30;0.70;;;;;;;;;;4982643;28;88492;-81
2024/01/05 08:58:13;;;;;;;2.05;0.68;;;;;;;;;;4983641;28;88748;-82
2024/01/05 09:00:40;;;;;;;3.15;0.50;;;;;;;;;;4982225;28;88744;-81
2024/01/05 09:03:07;;;;;;;2.08;0.70;;;;;;;;;;4984474;28;87711;-81
2024/01/05 09:05:34;;;;;;;0.98;0.50;;;;;;;;;;4983349;28;90065;-81
2024/01/05 09:08:00;;;;;;;2.13;0.60;;;;;;;;;;4966882;28;90664;-82
2024/01/05 09:10:27;;;;;;;4.35;0.68;;;;;;;;;;4985164;28;87665;-82
2024/01/05 09:12:53;;;;;;;4.65;0.73;;;;;;;;;;4983498;28;89536;-81
2024/01/05 09:15:22;;;;;;;1.88;0.60;;;;;;;;;;4966111;28;90000;-82
2024/01/05 09:17:49;;;;;;;3.28;0.70;;;;;;;;;;4982872;28;88115;-82
2024/01/05 09:20:16;;;;;;;2.75;0.63;;;;;;;;;;4980631;28;91806;-81
2024/01/05 09:22:43;;;;;;;1.67;0.85;;;;;;;;;;4983503;28;87595;-81
2024/01/05 09:25:09;;;;;;;3.67;0.80;;;;;;;;;;4984522;28;87584;-81
2024/01/05 09:27:36;;;;;;;3.95;0.80;;;;;;;;;;4984389;28;88399;-82
2024/01/05 09:30:03;;;;;;;4.45;0.70;;;;;;;;;;4984630;28;87692;-80
2024/01/05 09:32:30;;;;;;;6.60;1.20;;;;;;;;;;4984886;28;91018;-81
2024/01/05 09:34:57;;;;;;;5.72;0.90;;;;;;;;;;4981781;28;89093;-81
2024/01/05 09:37:23;;;;;;;4.05;0.82;;;;;;;;;;4985252;28;87700;-81
2024/01/05 09:39:50;;;;;;;2.75;0.65;;;;;;;;;;4983929;28;89737;-80
2024/01/05 09:42:16;;;;;;;4.85;0.80;;;;;;;;;;4984647;28;89260;-80
2024/01/05 09:44:46;;;;;;;4.55;0.70;;;;;;;;;;4986001;28;90367;-82
2024/01/05 09:47:14;;;;;;;1.88;0.68;;;;;;;;;;5005581;28;90905;-80
2024/01/05 09:49:44;;;;;;;2.63;0.73;;;;;;;;;;4991328;28;87657;-80
2024/01/05 09:52:15;;;;;;;1.83;0.90;;;;;;;;;;4989509;28;88451;-80
2024/01/05 09:54:42;;;;;;;1.88;0.68;;;;;;;;;;4983967;28;93979;-80
2024/01/05 09:57:10;;;;;;;2.88;0.68;;;;;;;;;;4985953;28;88241;-81
2024/01/05 09:59:38;;;;;;;3.00;0.90;;;;;;;;;;4984934;28;87650;-80
2024/01/05 10:02:10;;;;;;;6.05;1.00;;;;;;;;;;4969129;28;89289;-80
2024/01/05 10:04:36;;;;;;;5.25;1.20;;;;;;;;;;4984505;28;89478;-81
2024/01/05 10:07:03;;;;;;;10.20;1.00;;;;;;;;;;4986378;28;88979;-80
2024/01/05 10:09:31;;;;;;;1.65;0.60;;;;;;;;;;4983099;28;88602;-80
2024/01/05 10:11:57;;;;;;;2.17;0.65;;;;;;;;;;4983341;28;89786;-79
2024/01/05 10:14:26;;;;;;;1.08;0.60;;;;;;;;;;4986918;28;88529;-81
2024/01/05 10:17:13;;;;;;;2.03;0.60;;;;;;;;;;4966209;28;90628;-82
2024/01/05 10:19:41;;;;;;;2.10;0.70;;;;;;;;;;4966311;28;90776;-81
2024/01/05 10:22:12;;;;;;;2.30;0.80;;;;;;;;;;4985497;28;87963;-81
2024/01/05 10:24:39;;;;;;;2.25;0.70;;;;;;;;;;4984921;28;93067;-80
2024/01/05 10:27:05;;;;;;;;;;;;;;;;;;4986090;28;90125;-79
2024/01/05 10:29:33;;;;;;;2.80;0.70;;;;;;;;;;4982511;28;108154;-79
2024/01/05 10:32:19;;;;;;;2.45;0.80;;;;;;;;;;4984525;28;88057;-79
2024/01/05 10:34:47;;;;;;;1.90;0.75;;;;;;;;;;4978874;28;93411;-80
2024/01/05 10:37:17;;;;;;;1.98;0.75;;;;;;;;;;4979695;28;88016;-81
2024/01/05 10:39:47;;;;;;;1.40;0.73;;;;;;;;;;4983737;28;88568;-80
2024/01/05 10:42:21;;;;;;;2.17;0.80;;;;;;;;;;4983870;28;87835;-81
2024/01/05 10:44:51;;;;;;;1.77;0.80;;;;;;;;;;4984379;28;88634;-79
2024/01/05 10:47:19;;;;;;;1.95;0.60;;;;;;;;;;4984742;28;89179;-79
2024/01/05 10:49:50;;;;;;;1.95;0.90;;;;;;;;;;4982693;28;89829;-79
2024/01/05 10:52:22;;;;;;;1.60;0.80;;;;;;;;;;4983198;28;88161;-79
2024/01/05 10:54:50;;;;;;;6.25;0.80;;;;;;;;;;4983591;28;88301;-79
2024/01/05 10:57:18;;;;;;;1.75;0.60;;;;;;;;;;4984896;28;87797;-81
2024/01/05 10:59:54;;;;;;;1.30;0.70;;;;;;;;;;4985813;28;88357;-80
2024/01/05 11:02:23;;;;;;;1.98;0.90;;;;;;;;;;4999280;28;89062;-79
2024/01/05 11:04:56;;;;;;;2.58;0.68;;;;;;;;;;4984458;28;87655;-79
2024/01/05 11:07:23;;;;;;;;;;;;;;;;;;4964901;28;90647;-80
2024/01/05 11:09:57;;;;;;;2.45;0.80;;;;;;;;;;4964376;28;108083;-83
2024/01/05 11:12:42;;;;;;;3.20;0.90;;;;;;;;;;4965564;28;88778;-83
2024/01/05 11:15:17;;;;;;;3.63;0.80;;;;;;;;;;4983751;28;90161;-83
2024/01/05 11:17:53;;;;;;;2.33;0.82;;;;;;;;;;4986245;28;87177;-83
2024/01/05 11:20:28;;;;;;;2.90;0.80;;;;;;;;;;4982488;28;89109;-81
2024/01/05 11:22:56;;;;;;;2.40;0.80;;;;;;;;;;4987270;28;88649;-83
2024/01/05 11:25:23;;;;;;;1.20;0.70;;;;;;;;;;4982944;28;90550;-82
2024/01/05 11:27:50;;;;;;;1.58;0.90;;;;;;;;;;4963862;28;90402;-81
2024/01/05 11:30:36;;;;;;;2.05;0.77;;;;;;;;;;4976338;28;88016;-81
2024/01/05 11:33:03;;;;;;;1.98;0.80;;;;;;;;;;4985701;28;88728;-80
2024/01/05 11:35:36;;;;;;;1.40;0.75;;;;;;;;;;4973782;28;88265;-83
2024/01/05 11:38:15;;;;;;;3.10;0.73;;;;;;;;;;4967845;28;89533;-81
2024/01/05 11:40:42;;;;;;;1.95;0.65;;;;;;;;;;4983925;28;92562;-82
2024/01/05 11:43:28;;;;;;;2.17;0.80;;;;;;;;;;4985309;28;88245;-81
2024/01/05 11:45:55;;;;;;;2.67;0.85;;;;;;;;;;4983194;28;89959;-81
2024/01/05 11:48:33;;;;;;;1.85;0.90;;;;;;;;;;4979287;28;88268;-85
2024/01/05 11:51:08;;;;;;;3.67;1.00;;;;;;;;;;4978433;28;88638;-82
2024/01/05 11:53:35;;;;;;;1.15;0.73;;;;;;;;;;4980496;28;88533;-83
2024/01/05 11:56:03;;;;;;;1.33;0.98;;;;;;;;;;4976827;28;90405;-83
2024/01/05 11:58:35;;;;;;;1.70;0.80;;;;;;;;;;4982147;28;89738;-84
2024/01/05 12:01:04;;;;;;;2.40;0.82;;;;;;;;;;4982772;28;89612;-84
2024/01/05 12:03:30;;;;;;;1.35;0.85;;;;;;;;;;4984344;28;88580;-84
2024/01/05 12:05:59;;;;;;;2.33;0.80;;;;;;;;;;4985460;28;89383;-83
2024/01/05 12:08:26;;;;;;;8.32;1.00;;;;;;;;;;4983806;28;87772;-86
2024/01/05 12:11:00;;;;;;;1.67;1.00;;;;;;;;;;4982863;28;88998;-85
2024/01/05 12:13:27;;;;;;;2.53;0.80;;;;;;;;;;4982926;28;87730;-83
2024/01/05 12:15:54;;;;;;;3.08;1.00;;;;;;;;;;4981681;28;91023;-80
2024/01/05 12:18:29;;;;;;;1.60;0.93;;;;;;;;;;4983258;28;91627;-83
2024/01/05 12:21:05;;;;;;;1.05;0.77;;;;;;;;;;4984125;28;88199;-83
2024/01/05 12:23:32;;;;;;;1.65;0.90;;;;;;;;;;4984270;28;88579;-81
2024/01/05 12:26:03;;;;;;;2.38;1.00;;;;;;;;;;4983264;28;87710;-82
2024/01/05 12:28:34;;;;;;;3.05;0.93;;;;;;;;;;4969501;28;91254;-83
2024/01/05 12:31:01;;;;;;;4.90;1.10;;;;;;;;;;4984288;28;87743;-82
2024/01/05 12:33:27;;;;;;;;;;;;;;;;;;4986340;28;87419;-82
2024/01/05 12:35:55;;;;;;;3.10;1.02;;;;;;;;;;4970046;28;104073;-82
2024/01/05 12:38:39;;;;;;;4.32;1.02;;;;;;;;;;4970623;28;87816;-83
2024/01/05 12:41:06;;;;;;;2.05;1.00;;;;;;;;;;4981741;28;88457;-82
2024/01/05 12:43:34;;;;;;;2.40;1.00;;;;;;;;;;4983537;28;88640;-82
2024/01/05 12:46:03;;;;;;;6.40;1.15;;;;;;;;;;5002184;28;87864;-83
2024/01/05 12:48:31;;;;;;;5.32;1.30;;;;;;;;;;5002039;27;87609;-83
2024/01/05 12:51:05;;;;;;;3.63;1.02;;;;;;;;;;5003005;28;88694;-84
2024/01/05 12:53:32;;;;;;;3.67;1.13;;;;;;;;;;4984188;28;89311;-81
2024/01/05 12:56:10;;;;;;;8.07;1.30;;;;;;;;;;4971961;28;90741;-84
2024/01/05 12:58:40;;;;;;;5.30;1.30;;;;;;;;;;4992935;28;87452;-83
2024/01/05 13:01:14;;;;;;;5.82;1.10;;;;;;;;;;4984756;28;87818;-83
2024/01/05 13:03:47;;;;;;;3.20;1.10;;;;;;;;;;4983757;28;91259;-84
2024/01/05 13:06:13;;;;;;;5.93;1.20;;;;;;;;;;4975035;28;88619;-84
2024/01/05 13:08:41;;;;;;;5.07;1.10;;;;;;;;;;4983953;28;91022;-83
2024/01/05 13:11:08;;;;;;;3.10;1.00;;;;;;;;;;4982977;28;90806;-81
2024/01/05 13:13:34;;;;;;;8.93;1.30;;;;;;;;;;4987138;28;90402;-80
2024/01/05 13:16:01;;;;;;;3.67;1.00;;;;;;;;;;4968781;28;90890;-81
2024/01/05 13:18:28;;;;;;;4.38;1.20;;;;;;;;;;4987405;28;87862;-81
2024/01/05 13:20:55;;;;;;;3.63;1.25;;;;;;;;;;4985978;28;87766;-80
2024/01/05 13:23:23;;;;;;;4.10;1.20;;;;;;;;;;4986169;28;89952;-82
2024/01/05 13:25:50;;;;;;;2.60;1.10;;;;;;;;;;4987969;28;87530;-80
2024/01/05 13:28:17;;;;;;;4.32;1.20;;;;;;;;;;4985575;28;90430;-80
2024/01/05 13:30:44;;;;;;;3.00;1.25;;;;;;;;;;4986206;28;91330;-81
2024/01/05 13:33:12;;;;;;;2.78;1.10;;;;;;;;;;4986683;28;88980;-81
2024/01/05 13:35:38;;;;;;;4.30;1.17;;;;;;;;;;4979452;28;87889;-81
2024/01/05 13:38:05;;;;;;;2.10;1.00;;;;;;;;;;4980437;28;87641;-80
2024/01/05 13:40:32;;;;;;;3.03;1.00;;;;;;;;;;4986946;28;89580;-79
2024/01/05 13:42:58;;;;;;;3.10;1.10;;;;;;;;;;4988353;28;88660;-81
2024/01/05 13:45:25;;;;;;;4.82;1.10;;;;;;;;;;5000954;27;88240;-81
2024/01/05 13:47:53;;;;;;;2.72;1.10;;;;;;;;;;4999140;28;89625;-80
2024/01/05 13:50:19;;;;;;;3.47;1.00;;;;;;;;;;4985906;28;88293;-81
2024/01/05 13:52:46;;;;;;;3.55;1.23;;;;;;;;;;4986870;28;87859;-81
2024/01/05 13:55:13;;;;;;;5.28;1.13;;;;;;;;;;4983679;28;90513;-81
2024/01/05 13:57:39;;;;;;;4.60;1.20;;;;;;;;;;4986972;28;88305;-81
2024/01/05 14:00:06;;;;;;;3.47;1.00;;;;;;;;;;4968448;28;90482;-80
2024/01/05 14:02:33;;;;;;;;;;;;;;;;;;4986332;28;87543;-79
2024/01/05 14:05:00;;;;;;;3.13;1.08;;;;;;;;;;4970081;28;89176;-78
2024/01/05 14:07:28;;;;;;;3.63;1.10;;;;;;;;;;4969038;28;89776;-78
2024/01/05 14:09:55;;;;;;;1.30;0.85;;;;;;;;;;4984818;28;89047;-79
2024/01/05 14:12:21;;;;;;;2.95;1.10;;;;;;;;;;4984135;28;89844;-80
2024/01/05 14:14:48;;;;;;;3.15;1.00;;;;;;;;;;4968827;28;89454;-80
2024/01/05 14:17:14;;;;;;;4.13;0.90;;;;;;;;;;4971590;28;90753;-81
2024/01/05 14:19:42;;;;;;;2.55;0.90;;;;;;;;;;4984335;28;88416;-80
2024/01/05 14:22:10;;;;;;;2.47;0.90;;;;;;;;;;4986049;28;88270;-78
2024/01/05 14:24:40;;;;;;;1.17;0.88;;;;;;;;;;4982696;28;89568;-79
2024/01/05 14:27:07;;;;;;;2.17;0.80;;;;;;;;;;4983948;28;88540;-79
2024/01/05 14:29:34;;;;;;;2.58;0.90;;;;;;;;;;4984264;28;88413;-80
2024/01/05 14:32:03;;;;;;;2.22;0.90;;;;;;;;;;4984251;28;89669;-79
2024/01/05 14:34:29;;;;;;;2.70;0.90;;;;;;;;;;4981314;28;91654;-81
2024/01/05 14:36:56;;;;;;;2.22;0.90;;;;;;;;;;4964840;28;90342;-81
2024/01/05 14:39:27;;;;;;;3.20;1.08;;;;;;;;;;4964943;28;89069;-79
2024/01/05 14:41:54;;;;;;;2.03;1.10;;;;;;;;;;4984497;28;88273;-80
2024/01/05 14:44:20;;;;;;;2.17;0.98;;;;;;;;;;4985554;28;89635;-81
2024/01/05 14:46:47;;;;;;;2.30;0.95;;;;;;;;;;5005748;28;88995;-81
2024/01/05 14:49:14;;;;;;;2.22;1.00;;;;;;;;;;5004110;27;88479;-82